createdAt,value
2022-11-03T00:00:39.658Z,5.80
2022-11-03T00:05:56.206Z,6.00
2022-11-03T00:10:48.370Z,6.10
2022-11-03T00:15:36.895Z,6.30
2022-11-03T00:20:23.075Z,6.30
2022-11-03T00:25:13.765Z,6.20
2022-11-03T00:30:07.010Z,6.30
2022-11-03T00:34:50.330Z,6.30
2022-11-03T00:39:42.631Z,6.30
2022-11-03T00:44:27.503Z,6.30
2022-11-03T00:49:13.255Z,6.20
2022-11-03T00:54:07.387Z,6.20
2022-11-03T00:58:51.964Z,6.10
2022-11-03T01:03:42.117Z,6.10
2022-11-03T01:08:44.181Z,6.00
2022-11-03T01:13:33.375Z,6.10
2022-11-03T01:18:19.175Z,6.10
2022-11-03T01:23:21.136Z,6.10
2022-11-03T01:28:11.170Z,6.10
2022-11-03T01:33:00.488Z,6.10
2022-11-03T01:37:46.945Z,6.00
2022-11-03T01:42:35.102Z,5.80
2022-11-03T01:47:27.244Z,5.70
2022-11-03T01:52:16.109Z,5.50
2022-11-03T01:57:03.118Z,5.50
2022-11-03T02:01:48.180Z,5.50
2022-11-03T02:06:32.583Z,5.50
2022-11-03T02:11:33.859Z,5.40
2022-11-03T02:16:25.836Z,5.20
2022-11-03T02:21:23.005Z,5.20
2022-11-03T02:26:20.433Z,5.20
2022-11-03T02:31:16.103Z,5.10
2022-11-03T02:36:04.680Z,5.10
2022-11-03T02:41:06.018Z,5.10
2022-11-03T02:45:52.458Z,5.20
2022-11-03T02:50:53.006Z,5.20
2022-11-03T02:55:41.017Z,5.20
2022-11-03T03:00:47.975Z,5.10
2022-11-03T03:05:38.512Z,5.10
2022-11-03T03:10:25.254Z,5.20
2022-11-03T03:15:10.521Z,5.10
2022-11-03T03:20:01.734Z,4.90
2022-11-03T03:24:52.307Z,4.80
2022-11-03T03:29:51.559Z,4.60
2022-11-03T03:34:43.024Z,4.40
2022-11-03T03:39:31.037Z,4.20
2022-11-03T03:44:17.213Z,4.00
2022-11-03T03:49:04.264Z,3.80
2022-11-03T03:53:52.010Z,3.60
2022-11-03T03:58:37.794Z,3.50
2022-11-03T04:03:27.011Z,3.40
2022-11-03T04:08:17.641Z,3.40
2022-11-03T04:13:18.752Z,3.60
2022-11-03T04:18:21.367Z,3.80
2022-11-03T04:23:08.924Z,3.80
2022-11-03T04:28:01.310Z,4.00
2022-11-03T04:32:48.731Z,4.10
2022-11-03T04:37:33.773Z,4.10
2022-11-03T04:42:22.792Z,4.00
2022-11-03T04:47:10.983Z,4.00
2022-11-03T04:52:00.093Z,4.00
2022-11-03T04:56:43.389Z,4.00
2022-11-03T05:01:32.430Z,4.00
2022-11-03T05:06:21.140Z,4.00
2022-11-03T05:11:16.250Z,3.90
2022-11-03T05:16:04.185Z,3.70
2022-11-03T05:20:52.702Z,3.60
2022-11-03T05:25:48.875Z,3.60
2022-11-03T05:30:37.936Z,3.70
2022-11-03T05:35:30.257Z,3.80
2022-11-03T05:40:31.403Z,3.90
2022-11-03T05:45:30.284Z,4.00
2022-11-03T05:50:19.775Z,3.90
2022-11-03T05:55:14.729Z,3.90
2022-11-03T06:00:00.264Z,3.80
2022-11-03T06:04:45.605Z,3.70
2022-11-03T06:09:35.163Z,3.60
2022-11-03T06:14:24.499Z,3.50
2022-11-03T06:19:23.950Z,3.40
2022-11-03T06:24:16.942Z,3.30
2022-11-03T06:29:02.148Z,3.40
2022-11-03T06:33:47.717Z,3.60
2022-11-03T06:38:40.413Z,3.70
2022-11-03T06:43:28.693Z,3.70
2022-11-03T06:48:28.756Z,3.80
2022-11-03T06:53:15.253Z,3.80
2022-11-03T06:58:19.664Z,4.20
2022-11-03T07:03:08.902Z,4.40
2022-11-03T07:07:58.244Z,4.80
2022-11-03T07:12:45.330Z,5.10
2022-11-03T07:17:35.105Z,5.30
2022-11-03T07:22:24.628Z,5.60
2022-11-03T07:27:22.857Z,5.90
2022-11-03T07:32:12.709Z,6.00
2022-11-03T07:37:01.679Z,6.20
2022-11-03T07:41:48.877Z,6.40
2022-11-03T07:46:38.010Z,6.60
2022-11-03T07:51:28.673Z,6.80
2022-11-03T07:56:20.937Z,7.00
2022-11-03T08:01:27.901Z,7.30
2022-11-03T08:06:11.830Z,7.50
2022-11-03T08:15:56.994Z,8.00
2022-11-03T08:20:46.661Z,8.20
2022-11-03T08:25:32.254Z,8.50
2022-11-03T08:30:19.498Z,8.90
2022-11-03T08:35:11.832Z,9.00
2022-11-03T08:39:56.803Z,9.10
2022-11-03T08:44:46.114Z,9.10
2022-11-03T08:49:34.344Z,9.20
2022-11-03T08:54:21.335Z,9.50
2022-11-03T08:59:13.501Z,9.90
2022-11-03T09:03:56.784Z,10.20
2022-11-03T09:13:49.607Z,10.50
2022-11-03T09:18:42.170Z,10.70
2022-11-03T09:23:25.608Z,11.00
2022-11-03T09:28:13.832Z,11.30
2022-11-03T09:33:02.704Z,11.50
2022-11-03T09:37:46.005Z,12.00
2022-11-03T09:42:31.274Z,12.10
2022-11-03T09:47:23.263Z,12.40
2022-11-03T09:52:17.348Z,12.50
2022-11-03T09:57:19.762Z,12.50
2022-11-03T10:02:04.880Z,12.80
2022-11-03T10:06:56.032Z,13.00
2022-11-03T10:11:43.721Z,13.00
2022-11-03T10:16:29.396Z,13.30
2022-11-03T10:21:17.384Z,13.50
2022-11-03T10:26:10.910Z,13.70
2022-11-03T10:31:13.611Z,13.70
2022-11-03T10:35:58.831Z,14.00
2022-11-03T10:40:48.128Z,14.30
2022-11-03T10:45:34.759Z,14.40
2022-11-03T10:50:26.033Z,14.60
2022-11-03T10:55:10.150Z,14.60
2022-11-03T10:59:59.627Z,14.70
2022-11-03T11:04:43.454Z,14.90
2022-11-03T11:09:35.909Z,14.90
2022-11-03T11:14:23.728Z,15.20
2022-11-03T11:19:10.128Z,15.50
2022-11-03T11:23:59.464Z,15.50
2022-11-03T11:29:07.641Z,15.60
2022-11-03T11:34:18.691Z,15.20
2022-11-03T11:39:07.451Z,15.60
2022-11-03T11:43:55.399Z,15.60
2022-11-03T11:48:45.975Z,15.50
2022-11-03T11:53:34.145Z,15.50
2022-11-03T11:58:25.243Z,15.60
2022-11-03T12:03:16.447Z,15.50
2022-11-03T12:08:18.752Z,15.50
2022-11-03T12:13:02.266Z,15.30
2022-11-03T12:17:49.753Z,15.50
2022-11-03T12:22:42.912Z,15.40
2022-11-03T12:27:43.393Z,15.30
2022-11-03T12:32:33.358Z,15.20
2022-11-03T12:37:19.534Z,15.10
2022-11-03T12:42:06.344Z,14.90
2022-11-03T12:46:58.790Z,14.90
2022-11-03T12:51:42.190Z,14.90
2022-11-03T12:56:31.213Z,14.90
2022-11-03T13:01:20.771Z,14.80
2022-11-03T13:06:10.159Z,14.60
2022-11-03T13:10:53.864Z,14.50
2022-11-03T13:15:48.199Z,14.40
2022-11-03T13:20:31.690Z,14.10
2022-11-03T13:25:19.045Z,14.10
2022-11-03T13:30:09.660Z,14.20
2022-11-03T13:34:54.681Z,14.10
2022-11-03T13:39:40.019Z,13.80
2022-11-03T13:44:32.637Z,13.60
2022-11-03T13:59:26.604Z,12.90
2022-11-03T14:09:21.338Z,12.70
2022-11-03T14:14:04.802Z,12.40
2022-11-03T14:18:57.791Z,12.40
2022-11-03T14:23:41.199Z,12.30
2022-11-03T14:28:32.212Z,12.10
2022-11-03T14:33:18.723Z,12.10
2022-11-03T14:38:04.728Z,11.80
2022-11-03T14:42:51.443Z,11.60
2022-11-03T14:47:40.668Z,11.50
2022-11-03T14:52:28.568Z,11.20
2022-11-03T14:57:17.560Z,11.10
2022-11-03T15:02:07.268Z,11.00
2022-11-03T15:06:54.659Z,10.90
2022-11-03T15:11:44.343Z,10.80
2022-11-03T15:16:27.976Z,10.90
2022-11-03T15:21:17.265Z,10.80
2022-11-03T15:26:08.069Z,10.70
2022-11-03T15:30:54.812Z,10.70
2022-11-03T15:35:40.008Z,10.80
2022-11-03T15:40:32.861Z,10.70
2022-11-03T15:45:19.263Z,10.40
2022-11-03T15:50:06.554Z,10.40
2022-11-03T15:54:51.828Z,10.40
2022-11-03T15:59:41.523Z,10.30
2022-11-03T16:04:36.055Z,10.20
2022-11-03T16:10:11.942Z,10.20
2022-11-03T16:16:35.383Z,10.20
2022-11-03T16:21:07.557Z,10.00
2022-11-03T16:25:50.897Z,10.00
2022-11-03T16:30:39.465Z,9.90
2022-11-03T16:35:23.057Z,9.80
2022-11-03T16:40:19.368Z,9.80
2022-11-03T16:45:03.270Z,9.80
2022-11-03T16:49:52.929Z,9.60
2022-11-03T16:54:39.804Z,9.50
2022-11-03T16:59:27.610Z,9.50
2022-11-03T17:04:14.145Z,9.50
2022-11-03T17:09:06.673Z,9.50
2022-11-03T17:13:50.088Z,9.50
2022-11-03T17:18:55.933Z,9.60
2022-11-03T17:23:43.014Z,9.60
2022-11-03T17:28:29.387Z,9.70
2022-11-03T17:33:22.122Z,9.60
2022-11-03T17:38:21.229Z,9.50
2022-11-03T17:43:27.034Z,9.40
2022-11-03T17:48:16.388Z,9.40
2022-11-03T17:53:02.669Z,9.30
2022-11-03T17:57:50.727Z,9.10
2022-11-03T18:02:42.073Z,8.80
2022-11-03T18:07:27.896Z,8.80
2022-11-03T18:12:32.757Z,8.70
2022-11-03T18:17:20.627Z,8.80
2022-11-03T18:22:12.545Z,8.80
2022-11-03T18:27:41.864Z,8.90
2022-11-03T18:32:50.422Z,9.00
2022-11-03T18:37:34.621Z,9.10
2022-11-03T18:42:21.774Z,9.20
2022-11-03T18:47:08.077Z,9.20
2022-11-03T18:52:03.805Z,9.40
2022-11-03T18:56:48.008Z,9.60
2022-11-03T19:01:35.384Z,9.80
2022-11-03T19:06:28.063Z,10.10
2022-11-03T19:11:13.913Z,10.20
2022-11-03T19:15:57.936Z,10.30
2022-11-03T19:20:51.111Z,10.40
2022-11-03T19:25:34.631Z,10.40
2022-11-03T19:30:22.719Z,10.50
2022-11-03T19:35:16.204Z,10.40
2022-11-03T19:39:59.698Z,10.40
2022-11-03T19:44:46.140Z,10.40
2022-11-03T19:49:37.104Z,10.30
2022-11-03T19:54:25.107Z,10.10
2022-11-03T19:59:12.652Z,9.90
2022-11-03T20:03:57.491Z,9.80
2022-11-03T20:08:47.357Z,9.80
2022-11-03T20:13:40.467Z,9.80
2022-11-03T20:18:24.158Z,9.90
2022-11-03T20:23:32.375Z,10.00
2022-11-03T20:28:26.877Z,10.20
2022-11-03T20:33:18.809Z,10.30
2022-11-03T20:38:20.777Z,10.20
2022-11-03T20:43:26.970Z,10.30
2022-11-03T20:48:13.813Z,10.20
2022-11-03T20:53:19.222Z,10.10
2022-11-03T20:58:10.653Z,10.00
2022-11-03T21:02:56.623Z,10.00
2022-11-03T21:07:44.116Z,10.00
2022-11-03T21:12:30.361Z,10.10
2022-11-03T21:17:36.952Z,10.10
2022-11-03T21:22:50.448Z,10.10
2022-11-03T21:27:27.673Z,10.00
2022-11-03T21:32:16.117Z,9.80
2022-11-03T21:36:59.360Z,9.90
2022-11-03T21:42:09.109Z,9.80
2022-11-03T21:46:52.471Z,9.80
2022-11-03T21:51:43.474Z,9.60
2022-11-03T21:56:28.862Z,9.80
2022-11-03T22:01:22.179Z,9.80
2022-11-03T22:06:07.985Z,9.80
2022-11-03T22:10:53.329Z,9.80
2022-11-03T22:15:59.136Z,9.80
2022-11-03T22:21:04.126Z,9.80
2022-11-03T22:26:07.932Z,10.10
2022-11-03T22:31:10.409Z,10.20
2022-11-03T22:36:21.294Z,10.40
2022-11-03T22:41:36.911Z,10.50
2022-11-03T22:46:23.103Z,10.50
2022-11-03T22:51:14.701Z,10.60
2022-11-03T22:56:00.774Z,10.60
2022-11-03T23:00:47.649Z,10.60
2022-11-03T23:05:33.780Z,10.60
2022-11-03T23:10:28.248Z,10.30
2022-11-03T23:15:29.346Z,10.10
2022-11-03T23:20:30.041Z,10.10
2022-11-03T23:25:19.160Z,10.10
2022-11-03T23:30:07.062Z,9.90
2022-11-03T23:34:53.450Z,10.00
2022-11-03T23:39:40.781Z,10.00
2022-11-03T23:44:58.433Z,9.90
2022-11-03T23:49:48.997Z,9.80
2022-11-03T23:54:42.938Z,9.80
2022-11-03T23:59:29.409Z,9.70
